sensor_id;sensor_type;location;lat;lon;timestamp;P1;durP1;ratioP1;P2;durP2;ratioP2
1471;SDS011;963;42.644;23.336;2022-08-16T00:01:28;12.20;;;10.57;;
1471;SDS011;963;42.644;23.336;2022-08-16T00:03:55;14.40;;;11.43;;
1471;SDS011;963;42.644;23.336;2022-08-16T00:06:21;14.47;;;11.70;;
1471;SDS011;963;42.644;23.336;2022-08-16T00:08:47;13.33;;;11.10;;
1471;SDS011;963;42.644;23.336;2022-08-16T00:11:13;14.17;;;11.23;;
1471;SDS011;963;42.644;23.336;2022-08-16T00:13:39;13.10;;;11.50;;
1471;SDS011;963;42.644;23.336;2022-08-16T00:16:04;13.10;;;11.30;;
1471;SDS011;963;42.644;23.336;2022-08-16T00:18:31;16.53;;;12.10;;
1471;SDS011;963;42.644;23.336;2022-08-16T00:20:57;12.50;;;11.20;;
1471;SDS011;963;42.644;23.336;2022-08-16T00:23:23;14.80;;;12.67;;
1471;SDS011;963;42.644;23.336;2022-08-16T00:25:48;17.27;;;11.50;;
1471;SDS011;963;42.644;23.336;2022-08-16T00:28:14;12.43;;;11.13;;
1471;SDS011;963;42.644;23.336;2022-08-16T00:30:39;14.33;;;12.20;;
1471;SDS011;963;42.644;23.336;2022-08-16T00:33:05;16.77;;;13.90;;
1471;SDS011;963;42.644;23.336;2022-08-16T00:35:32;17.80;;;12.80;;
1471;SDS011;963;42.644;23.336;2022-08-16T00:38:00;16.50;;;13.10;;
1471;SDS011;963;42.644;23.336;2022-08-16T00:40:34;14.97;;;13.17;;
1471;SDS011;963;42.644;23.336;2022-08-16T00:43:04;13.80;;;12.30;;
1471;SDS011;963;42.644;23.336;2022-08-16T00:48:17;13.43;;;12.07;;
1471;SDS011;963;42.644;23.336;2022-08-16T00:50:43;12.07;;;10.80;;
1471;SDS011;963;42.644;23.336;2022-08-16T00:53:11;12.37;;;11.07;;
1471;SDS011;963;42.644;23.336;2022-08-16T00:55:39;10.70;;;9.60;;
1471;SDS011;963;42.644;23.336;2022-08-16T00:58:10;14.80;;;11.03;;
1471;SDS011;963;42.644;23.336;2022-08-16T01:00:36;14.80;;;11.50;;
1471;SDS011;963;42.644;23.336;2022-08-16T01:03:04;12.53;;;11.07;;
1471;SDS011;963;42.644;23.336;2022-08-16T01:05:32;17.47;;;12.03;;
1471;SDS011;963;42.644;23.336;2022-08-16T01:07:59;14.97;;;11.93;;
1471;SDS011;963;42.644;23.336;2022-08-16T01:10:27;12.13;;;10.80;;
1471;SDS011;963;42.644;23.336;2022-08-16T01:12:54;12.50;;;10.87;;
1471;SDS011;963;42.644;23.336;2022-08-16T01:15:20;13.60;;;11.67;;
1471;SDS011;963;42.644;23.336;2022-08-16T01:17:46;12.93;;;11.63;;
1471;SDS011;963;42.644;23.336;2022-08-16T01:20:13;13.03;;;11.73;;
1471;SDS011;963;42.644;23.336;2022-08-16T01:25:11;14.60;;;11.83;;
1471;SDS011;963;42.644;23.336;2022-08-16T01:27:47;14.07;;;11.97;;
1471;SDS011;963;42.644;23.336;2022-08-16T01:30:18;14.53;;;13.03;;
1471;SDS011;963;42.644;23.336;2022-08-16T01:32:48;14.97;;;11.67;;
1471;SDS011;963;42.644;23.336;2022-08-16T01:35:23;13.60;;;12.20;;
1471;SDS011;963;42.644;23.336;2022-08-16T01:37:54;17.03;;;12.57;;
1471;SDS011;963;42.644;23.336;2022-08-16T01:40:24;13.10;;;11.73;;
1471;SDS011;963;42.644;23.336;2022-08-16T01:42:54;12.70;;;11.50;;
1471;SDS011;963;42.644;23.336;2022-08-16T01:45:21;12.50;;;11.20;;
1471;SDS011;963;42.644;23.336;2022-08-16T01:47:49;13.50;;;12.10;;
1471;SDS011;963;42.644;23.336;2022-08-16T01:50:15;13.60;;;12.20;;
1471;SDS011;963;42.644;23.336;2022-08-16T01:52:41;16.60;;;13.30;;
1471;SDS011;963;42.644;23.336;2022-08-16T01:55:08;15.50;;;13.33;;
1471;SDS011;963;42.644;23.336;2022-08-16T01:57:34;13.43;;;12.03;;
1471;SDS011;963;42.644;23.336;2022-08-16T02:00:00;13.83;;;11.77;;
1471;SDS011;963;42.644;23.336;2022-08-16T02:02:26;13.23;;;11.83;;
1471;SDS011;963;42.644;23.336;2022-08-16T02:04:52;14.13;;;12.73;;
1471;SDS011;963;42.644;23.336;2022-08-16T02:07:19;12.70;;;11.17;;
1471;SDS011;963;42.644;23.336;2022-08-16T02:09:45;13.23;;;11.83;;
1471;SDS011;963;42.644;23.336;2022-08-16T02:12:12;12.63;;;11.33;;
1471;SDS011;963;42.644;23.336;2022-08-16T02:14:40;13.60;;;12.17;;
1471;SDS011;963;42.644;23.336;2022-08-16T02:17:07;13.77;;;12.37;;
1471;SDS011;963;42.644;23.336;2022-08-16T02:19:36;14.23;;;12.77;;
1471;SDS011;963;42.644;23.336;2022-08-16T02:22:04;14.00;;;12.13;;
1471;SDS011;963;42.644;23.336;2022-08-16T02:24:30;14.40;;;12.83;;
1471;SDS011;963;42.644;23.336;2022-08-16T02:26:56;15.10;;;12.50;;
1471;SDS011;963;42.644;23.336;2022-08-16T02:29:22;15.60;;;12.80;;
1471;SDS011;963;42.644;23.336;2022-08-16T02:31:48;13.10;;;11.70;;
1471;SDS011;963;42.644;23.336;2022-08-16T02:34:15;14.33;;;12.83;;
1471;SDS011;963;42.644;23.336;2022-08-16T02:36:42;16.17;;;12.20;;
1471;SDS011;963;42.644;23.336;2022-08-16T02:39:08;13.33;;;11.73;;
1471;SDS011;963;42.644;23.336;2022-08-16T02:41:36;12.80;;;11.37;;
1471;SDS011;963;42.644;23.336;2022-08-16T02:44:03;13.70;;;11.90;;
1471;SDS011;963;42.644;23.336;2022-08-16T02:46:30;13.63;;;12.17;;
1471;SDS011;963;42.644;23.336;2022-08-16T02:48:56;13.10;;;11.40;;
1471;SDS011;963;42.644;23.336;2022-08-16T02:51:22;13.80;;;12.40;;
1471;SDS011;963;42.644;23.336;2022-08-16T02:53:48;13.43;;;12.00;;
1471;SDS011;963;42.644;23.336;2022-08-16T02:56:14;12.40;;;11.13;;
1471;SDS011;963;42.644;23.336;2022-08-16T02:58:42;12.10;;;10.60;;
1471;SDS011;963;42.644;23.336;2022-08-16T03:01:09;13.70;;;12.30;;
1471;SDS011;963;42.644;23.336;2022-08-16T03:03:35;12.63;;;11.33;;
1471;SDS011;963;42.644;23.336;2022-08-16T03:06:01;15.07;;;12.07;;
1471;SDS011;963;42.644;23.336;2022-08-16T03:08:27;13.43;;;12.03;;
1471;SDS011;963;42.644;23.336;2022-08-16T03:10:53;16.83;;;12.00;;
1471;SDS011;963;42.644;23.336;2022-08-16T03:13:18;12.93;;;11.60;;
1471;SDS011;963;42.644;23.336;2022-08-16T03:15:44;12.33;;;11.07;;
1471;SDS011;963;42.644;23.336;2022-08-16T03:18:11;12.50;;;11.30;;
1471;SDS011;963;42.644;23.336;2022-08-16T03:20:37;15.37;;;12.37;;
1471;SDS011;963;42.644;23.336;2022-08-16T03:23:03;13.03;;;11.70;;
1471;SDS011;963;42.644;23.336;2022-08-16T03:25:29;12.73;;;11.30;;
1471;SDS011;963;42.644;23.336;2022-08-16T03:27:56;13.33;;;11.33;;
1471;SDS011;963;42.644;23.336;2022-08-16T03:30:29;11.77;;;10.67;;
1471;SDS011;963;42.644;23.336;2022-08-16T03:32:56;13.87;;;11.50;;
1471;SDS011;963;42.644;23.336;2022-08-16T03:35:23;12.90;;;11.50;;
1471;SDS011;963;42.644;23.336;2022-08-16T03:37:55;14.23;;;11.80;;
1471;SDS011;963;42.644;23.336;2022-08-16T03:40:22;16.47;;;12.10;;
1471;SDS011;963;42.644;23.336;2022-08-16T03:42:48;17.40;;;12.67;;
1471;SDS011;963;42.644;23.336;2022-08-16T03:45:14;14.03;;;12.37;;
1471;SDS011;963;42.644;23.336;2022-08-16T03:47:40;14.80;;;11.93;;
1471;SDS011;963;42.644;23.336;2022-08-16T03:50:07;12.83;;;11.53;;
1471;SDS011;963;42.644;23.336;2022-08-16T03:52:33;13.30;;;11.53;;
1471;SDS011;963;42.644;23.336;2022-08-16T03:55:00;14.00;;;11.70;;
1471;SDS011;963;42.644;23.336;2022-08-16T03:57:27;13.30;;;11.90;;
1471;SDS011;963;42.644;23.336;2022-08-16T03:59:53;15.33;;;11.47;;
1471;SDS011;963;42.644;23.336;2022-08-16T04:02:18;15.40;;;12.50;;
1471;SDS011;963;42.644;23.336;2022-08-16T04:04:45;14.13;;;11.70;;
1471;SDS011;963;42.644;23.336;2022-08-16T04:07:10;13.87;;;11.10;;
1471;SDS011;963;42.644;23.336;2022-08-16T04:09:36;12.43;;;11.23;;
1471;SDS011;963;42.644;23.336;2022-08-16T04:12:03;12.97;;;10.67;;
1471;SDS011;963;42.644;23.336;2022-08-16T04:14:29;12.57;;;10.67;;
1471;SDS011;963;42.644;23.336;2022-08-16T04:16:55;19.63;;;11.50;;
1471;SDS011;963;42.644;23.336;2022-08-16T04:19:20;15.40;;;11.30;;
1471;SDS011;963;42.644;23.336;2022-08-16T04:21:49;14.83;;;12.90;;
1471;SDS011;963;42.644;23.336;2022-08-16T04:24:14;15.70;;;11.90;;
1471;SDS011;963;42.644;23.336;2022-08-16T04:26:40;13.97;;;11.10;;
1471;SDS011;963;42.644;23.336;2022-08-16T04:29:05;17.80;;;11.70;;
1471;SDS011;963;42.644;23.336;2022-08-16T04:31:30;21.80;;;12.80;;
1471;SDS011;963;42.644;23.336;2022-08-16T04:33:56;16.53;;;12.43;;
1471;SDS011;963;42.644;23.336;2022-08-16T04:36:23;17.70;;;10.93;;
1471;SDS011;963;42.644;23.336;2022-08-16T04:38:51;19.20;;;12.97;;
1471;SDS011;963;42.644;23.336;2022-08-16T04:41:17;18.77;;;10.73;;
1471;SDS011;963;42.644;23.336;2022-08-16T04:43:43;18.83;;;12.30;;
1471;SDS011;963;42.644;23.336;2022-08-16T04:46:08;20.20;;;11.70;;
1471;SDS011;963;42.644;23.336;2022-08-16T04:48:34;18.93;;;12.83;;
1471;SDS011;963;42.644;23.336;2022-08-16T04:51:00;20.30;;;12.10;;
1471;SDS011;963;42.644;23.336;2022-08-16T04:53:26;16.20;;;12.57;;
1471;SDS011;963;42.644;23.336;2022-08-16T04:55:53;17.33;;;13.70;;
1471;SDS011;963;42.644;23.336;2022-08-16T04:58:19;17.00;;;13.10;;
1471;SDS011;963;42.644;23.336;2022-08-16T05:00:45;19.17;;;13.20;;
1471;SDS011;963;42.644;23.336;2022-08-16T05:03:11;18.03;;;13.53;;
1471;SDS011;963;42.644;23.336;2022-08-16T05:05:37;17.50;;;13.23;;
1471;SDS011;963;42.644;23.336;2022-08-16T05:08:05;17.73;;;12.93;;
1471;SDS011;963;42.644;23.336;2022-08-16T05:10:31;16.87;;;15.17;;
1471;SDS011;963;42.644;23.336;2022-08-16T05:12:57;16.37;;;14.47;;
1471;SDS011;963;42.644;23.336;2022-08-16T05:15:23;17.97;;;14.43;;
1471;SDS011;963;42.644;23.336;2022-08-16T05:17:50;18.43;;;14.90;;
1471;SDS011;963;42.644;23.336;2022-08-16T05:20:16;19.73;;;15.47;;
1471;SDS011;963;42.644;23.336;2022-08-16T05:22:41;17.10;;;15.30;;
1471;SDS011;963;42.644;23.336;2022-08-16T05:25:07;17.03;;;15.23;;
1471;SDS011;963;42.644;23.336;2022-08-16T05:27:34;16.60;;;14.83;;
1471;SDS011;963;42.644;23.336;2022-08-16T05:30:00;17.00;;;14.30;;
1471;SDS011;963;42.644;23.336;2022-08-16T05:32:25;17.90;;;14.90;;
1471;SDS011;963;42.644;23.336;2022-08-16T05:34:51;16.77;;;14.13;;
1471;SDS011;963;42.644;23.336;2022-08-16T05:37:16;16.73;;;14.50;;
1471;SDS011;963;42.644;23.336;2022-08-16T05:39:41;20.57;;;14.57;;
1471;SDS011;963;42.644;23.336;2022-08-16T05:42:07;20.40;;;15.43;;
1471;SDS011;963;42.644;23.336;2022-08-16T05:44:32;17.90;;;15.60;;
1471;SDS011;963;42.644;23.336;2022-08-16T05:46:59;22.23;;;15.50;;
1471;SDS011;963;42.644;23.336;2022-08-16T05:49:25;17.20;;;14.40;;
1471;SDS011;963;42.644;23.336;2022-08-16T05:51:53;23.63;;;15.47;;
1471;SDS011;963;42.644;23.336;2022-08-16T05:54:19;17.43;;;13.97;;
1471;SDS011;963;42.644;23.336;2022-08-16T05:56:46;16.87;;;13.13;;
1471;SDS011;963;42.644;23.336;2022-08-16T05:59:12;20.47;;;13.93;;
1471;SDS011;963;42.644;23.336;2022-08-16T06:01:40;17.63;;;15.83;;
1471;SDS011;963;42.644;23.336;2022-08-16T06:04:07;24.80;;;16.80;;
1471;SDS011;963;42.644;23.336;2022-08-16T06:06:34;16.87;;;13.60;;
1471;SDS011;963;42.644;23.336;2022-08-16T06:08:59;16.30;;;14.20;;
1471;SDS011;963;42.644;23.336;2022-08-16T06:11:25;24.23;;;16.03;;
1471;SDS011;963;42.644;23.336;2022-08-16T06:13:50;15.93;;;14.23;;
1471;SDS011;963;42.644;23.336;2022-08-16T06:16:16;17.50;;;14.73;;
1471;SDS011;963;42.644;23.336;2022-08-16T06:18:41;17.90;;;15.53;;
1471;SDS011;963;42.644;23.336;2022-08-16T06:21:09;18.00;;;15.00;;
1471;SDS011;963;42.644;23.336;2022-08-16T06:23:35;20.23;;;16.03;;
1471;SDS011;963;42.644;23.336;2022-08-16T06:26:00;17.60;;;14.80;;
1471;SDS011;963;42.644;23.336;2022-08-16T06:28:26;16.37;;;13.40;;
1471;SDS011;963;42.644;23.336;2022-08-16T06:30:52;18.70;;;12.60;;
1471;SDS011;963;42.644;23.336;2022-08-16T06:33:17;13.93;;;12.50;;
1471;SDS011;963;42.644;23.336;2022-08-16T06:35:43;17.17;;;14.67;;
1471;SDS011;963;42.644;23.336;2022-08-16T06:38:10;15.10;;;13.53;;
1471;SDS011;963;42.644;23.336;2022-08-16T06:40:35;16.43;;;13.20;;
1471;SDS011;963;42.644;23.336;2022-08-16T06:43:01;23.80;;;15.00;;
1471;SDS011;963;42.644;23.336;2022-08-16T06:45:26;18.50;;;13.40;;
1471;SDS011;963;42.644;23.336;2022-08-16T06:47:52;17.30;;;14.40;;
1471;SDS011;963;42.644;23.336;2022-08-16T06:50:17;16.67;;;14.97;;
1471;SDS011;963;42.644;23.336;2022-08-16T06:52:43;20.97;;;13.97;;
1471;SDS011;963;42.644;23.336;2022-08-16T06:55:10;16.80;;;13.63;;
1471;SDS011;963;42.644;23.336;2022-08-16T06:57:37;18.17;;;14.30;;
1471;SDS011;963;42.644;23.336;2022-08-16T07:00:03;15.70;;;12.80;;
1471;SDS011;963;42.644;23.336;2022-08-16T07:02:40;16.13;;;12.87;;
1471;SDS011;963;42.644;23.336;2022-08-16T07:05:07;16.50;;;14.70;;
1471;SDS011;963;42.644;23.336;2022-08-16T07:07:33;15.67;;;14.00;;
1471;SDS011;963;42.644;23.336;2022-08-16T07:09:59;19.20;;;14.07;;
1471;SDS011;963;42.644;23.336;2022-08-16T07:12:25;17.87;;;14.50;;
1471;SDS011;963;42.644;23.336;2022-08-16T07:14:50;16.30;;;13.00;;
1471;SDS011;963;42.644;23.336;2022-08-16T07:17:16;16.40;;;14.50;;
1471;SDS011;963;42.644;23.336;2022-08-16T07:19:46;15.47;;;13.67;;
1471;SDS011;963;42.644;23.336;2022-08-16T07:22:12;15.70;;;13.63;;
1471;SDS011;963;42.644;23.336;2022-08-16T07:24:38;17.10;;;13.17;;
1471;SDS011;963;42.644;23.336;2022-08-16T07:27:04;16.83;;;13.17;;
1471;SDS011;963;42.644;23.336;2022-08-16T07:29:29;16.83;;;13.30;;
1471;SDS011;963;42.644;23.336;2022-08-16T07:31:55;19.27;;;14.70;;
1471;SDS011;963;42.644;23.336;2022-08-16T07:34:21;18.30;;;14.60;;
1471;SDS011;963;42.644;23.336;2022-08-16T07:36:46;18.80;;;13.40;;
1471;SDS011;963;42.644;23.336;2022-08-16T07:39:12;18.90;;;13.20;;
1471;SDS011;963;42.644;23.336;2022-08-16T07:41:39;18.17;;;13.67;;
1471;SDS011;963;42.644;23.336;2022-08-16T07:44:05;15.77;;;12.70;;
1471;SDS011;963;42.644;23.336;2022-08-16T07:46:30;14.63;;;12.67;;
1471;SDS011;963;42.644;23.336;2022-08-16T07:48:56;13.70;;;12.00;;
1471;SDS011;963;42.644;23.336;2022-08-16T07:51:22;14.80;;;12.60;;
1471;SDS011;963;42.644;23.336;2022-08-16T07:53:47;16.43;;;12.77;;
1471;SDS011;963;42.644;23.336;2022-08-16T07:56:16;16.70;;;13.00;;
1471;SDS011;963;42.644;23.336;2022-08-16T07:58:42;14.50;;;12.07;;
1471;SDS011;963;42.644;23.336;2022-08-16T08:01:08;18.80;;;13.27;;
1471;SDS011;963;42.644;23.336;2022-08-16T08:03:33;15.57;;;13.00;;
1471;SDS011;963;42.644;23.336;2022-08-16T08:05:59;15.03;;;12.77;;
1471;SDS011;963;42.644;23.336;2022-08-16T08:08:25;13.80;;;12.37;;
1471;SDS011;963;42.644;23.336;2022-08-16T08:10:50;13.17;;;11.87;;
1471;SDS011;963;42.644;23.336;2022-08-16T08:13:16;14.20;;;11.63;;
1471;SDS011;963;42.644;23.336;2022-08-16T08:15:41;13.93;;;12.53;;
1471;SDS011;963;42.644;23.336;2022-08-16T08:18:07;13.10;;;11.80;;
1471;SDS011;963;42.644;23.336;2022-08-16T08:20:33;13.43;;;11.50;;
1471;SDS011;963;42.644;23.336;2022-08-16T08:22:59;13.20;;;11.90;;
1471;SDS011;963;42.644;23.336;2022-08-16T08:25:24;15.27;;;12.17;;
1471;SDS011;963;42.644;23.336;2022-08-16T08:27:50;13.10;;;11.70;;
1471;SDS011;963;42.644;23.336;2022-08-16T08:30:16;12.50;;;11.20;;
1471;SDS011;963;42.644;23.336;2022-08-16T08:32:42;12.90;;;11.60;;
1471;SDS011;963;42.644;23.336;2022-08-16T08:35:08;15.67;;;11.53;;
1471;SDS011;963;42.644;23.336;2022-08-16T08:37:35;14.63;;;12.63;;
1471;SDS011;963;42.644;23.336;2022-08-16T08:40:03;16.97;;;11.77;;
1471;SDS011;963;42.644;23.336;2022-08-16T08:42:30;14.27;;;11.73;;
1471;SDS011;963;42.644;23.336;2022-08-16T08:44:56;14.10;;;11.70;;
1471;SDS011;963;42.644;23.336;2022-08-16T08:47:21;13.93;;;11.17;;
1471;SDS011;963;42.644;23.336;2022-08-16T08:49:47;12.53;;;11.10;;
1471;SDS011;963;42.644;23.336;2022-08-16T08:52:13;17.73;;;11.53;;
1471;SDS011;963;42.644;23.336;2022-08-16T08:54:39;15.43;;;10.90;;
1471;SDS011;963;42.644;23.336;2022-08-16T08:57:05;10.63;;;9.53;;
1471;SDS011;963;42.644;23.336;2022-08-16T08:59:31;11.63;;;10.10;;
1471;SDS011;963;42.644;23.336;2022-08-16T09:01:57;13.83;;;8.70;;
1471;SDS011;963;42.644;23.336;2022-08-16T09:04:23;9.53;;;8.60;;
1471;SDS011;963;42.644;23.336;2022-08-16T09:06:50;9.80;;;8.50;;
1471;SDS011;963;42.644;23.336;2022-08-16T09:09:17;14.10;;;10.13;;
1471;SDS011;963;42.644;23.336;2022-08-16T09:11:43;9.73;;;8.23;;
1471;SDS011;963;42.644;23.336;2022-08-16T09:14:10;14.43;;;9.23;;
1471;SDS011;963;42.644;23.336;2022-08-16T09:16:36;8.43;;;7.67;;
1471;SDS011;963;42.644;23.336;2022-08-16T09:19:02;8.87;;;8.03;;
1471;SDS011;963;42.644;23.336;2022-08-16T09:21:28;8.73;;;7.63;;
1471;SDS011;963;42.644;23.336;2022-08-16T09:23:53;9.00;;;8.10;;
1471;SDS011;963;42.644;23.336;2022-08-16T09:26:19;7.50;;;6.80;;
1471;SDS011;963;42.644;23.336;2022-08-16T09:28:45;7.30;;;6.40;;
1471;SDS011;963;42.644;23.336;2022-08-16T09:31:11;6.93;;;6.23;;
1471;SDS011;963;42.644;23.336;2022-08-16T09:33:38;6.80;;;5.90;;
1471;SDS011;963;42.644;23.336;2022-08-16T09:36:04;7.40;;;6.10;;
1471;SDS011;963;42.644;23.336;2022-08-16T09:38:31;8.33;;;5.93;;
1471;SDS011;963;42.644;23.336;2022-08-16T09:40:59;6.70;;;6.00;;
1471;SDS011;963;42.644;23.336;2022-08-16T09:43:29;6.03;;;5.43;;
1471;SDS011;963;42.644;23.336;2022-08-16T09:45:54;8.67;;;6.33;;
1471;SDS011;963;42.644;23.336;2022-08-16T09:48:20;7.00;;;5.73;;
1471;SDS011;963;42.644;23.336;2022-08-16T09:50:45;9.97;;;6.40;;
1471;SDS011;963;42.644;23.336;2022-08-16T09:53:13;6.63;;;5.77;;
1471;SDS011;963;42.644;23.336;2022-08-16T09:55:40;6.23;;;5.63;;
1471;SDS011;963;42.644;23.336;2022-08-16T09:58:05;7.80;;;6.50;;
1471;SDS011;963;42.644;23.336;2022-08-16T10:00:31;7.73;;;5.33;;
1471;SDS011;963;42.644;23.336;2022-08-16T10:02:57;6.97;;;5.30;;
1471;SDS011;963;42.644;23.336;2022-08-16T10:05:22;7.60;;;6.10;;
1471;SDS011;963;42.644;23.336;2022-08-16T10:07:48;6.53;;;5.93;;
1471;SDS011;963;42.644;23.336;2022-08-16T10:10:17;6.10;;;5.40;;
1471;SDS011;963;42.644;23.336;2022-08-16T10:12:45;5.87;;;5.27;;
1471;SDS011;963;42.644;23.336;2022-08-16T10:15:30;11.83;;;6.37;;
1471;SDS011;963;42.644;23.336;2022-08-16T10:17:56;8.33;;;5.50;;
1471;SDS011;963;42.644;23.336;2022-08-16T10:20:22;6.20;;;5.60;;
1471;SDS011;963;42.644;23.336;2022-08-16T10:22:50;6.77;;;6.17;;
1471;SDS011;963;42.644;23.336;2022-08-16T10:25:16;7.20;;;5.80;;
1471;SDS011;963;42.644;23.336;2022-08-16T10:27:43;7.17;;;6.00;;
1471;SDS011;963;42.644;23.336;2022-08-16T10:30:10;5.90;;;5.30;;
1471;SDS011;963;42.644;23.336;2022-08-16T10:32:36;5.90;;;5.30;;
1471;SDS011;963;42.644;23.336;2022-08-16T10:35:02;10.03;;;5.73;;
1471;SDS011;963;42.644;23.336;2022-08-16T10:37:28;6.10;;;5.40;;
1471;SDS011;963;42.644;23.336;2022-08-16T10:39:54;8.07;;;6.00;;
1471;SDS011;963;42.644;23.336;2022-08-16T10:42:25;7.43;;;5.23;;
1471;SDS011;963;42.644;23.336;2022-08-16T10:44:51;6.10;;;5.60;;
1471;SDS011;963;42.644;23.336;2022-08-16T10:47:17;5.97;;;5.37;;
1471;SDS011;963;42.644;23.336;2022-08-16T10:49:42;7.23;;;6.07;;
1471;SDS011;963;42.644;23.336;2022-08-16T10:52:07;6.93;;;5.50;;
1471;SDS011;963;42.644;23.336;2022-08-16T10:54:33;7.17;;;6.57;;
1471;SDS011;963;42.644;23.336;2022-08-16T10:56:59;7.03;;;5.90;;
1471;SDS011;963;42.644;23.336;2022-08-16T10:59:27;7.37;;;6.33;;
1471;SDS011;963;42.644;23.336;2022-08-16T11:01:55;9.37;;;5.70;;
1471;SDS011;963;42.644;23.336;2022-08-16T11:04:21;6.93;;;5.80;;
1471;SDS011;963;42.644;23.336;2022-08-16T11:06:47;7.07;;;5.77;;
1471;SDS011;963;42.644;23.336;2022-08-16T11:09:12;6.10;;;5.43;;
1471;SDS011;963;42.644;23.336;2022-08-16T11:11:38;8.00;;;5.50;;
1471;SDS011;963;42.644;23.336;2022-08-16T11:14:03;7.60;;;5.67;;
1471;SDS011;963;42.644;23.336;2022-08-16T11:16:28;7.40;;;6.70;;
1471;SDS011;963;42.644;23.336;2022-08-16T11:18:55;6.40;;;5.80;;
1471;SDS011;963;42.644;23.336;2022-08-16T11:21:21;11.50;;;6.03;;
1471;SDS011;963;42.644;23.336;2022-08-16T11:23:48;6.03;;;5.43;;
1471;SDS011;963;42.644;23.336;2022-08-16T11:26:14;6.60;;;6.00;;
1471;SDS011;963;42.644;23.336;2022-08-16T11:28:39;6.47;;;5.47;;
1471;SDS011;963;42.644;23.336;2022-08-16T11:31:05;5.70;;;5.20;;
1471;SDS011;963;42.644;23.336;2022-08-16T11:33:31;7.93;;;5.53;;
1471;SDS011;963;42.644;23.336;2022-08-16T11:35:56;6.17;;;5.57;;
1471;SDS011;963;42.644;23.336;2022-08-16T11:38:22;5.90;;;4.90;;
1471;SDS011;963;42.644;23.336;2022-08-16T11:40:52;9.37;;;5.50;;
1471;SDS011;963;42.644;23.336;2022-08-16T11:43:22;6.53;;;5.43;;
1471;SDS011;963;42.644;23.336;2022-08-16T11:45:50;5.57;;;5.07;;
1471;SDS011;963;42.644;23.336;2022-08-16T11:48:16;8.23;;;6.13;;
1471;SDS011;963;42.644;23.336;2022-08-16T11:50:43;5.63;;;4.80;;
1471;SDS011;963;42.644;23.336;2022-08-16T11:53:10;6.23;;;5.23;;
1471;SDS011;963;42.644;23.336;2022-08-16T11:55:38;5.90;;;5.40;;
1471;SDS011;963;42.644;23.336;2022-08-16T11:58:04;6.03;;;5.43;;
1471;SDS011;963;42.644;23.336;2022-08-16T12:00:32;5.40;;;4.80;;
1471;SDS011;963;42.644;23.336;2022-08-16T12:02:58;6.60;;;4.97;;
1471;SDS011;963;42.644;23.336;2022-08-16T12:05:24;6.13;;;4.30;;
1471;SDS011;963;42.644;23.336;2022-08-16T12:07:51;4.70;;;4.20;;
1471;SDS011;963;42.644;23.336;2022-08-16T12:10:19;4.83;;;4.20;;
1471;SDS011;963;42.644;23.336;2022-08-16T12:12:46;5.27;;;4.10;;
1471;SDS011;963;42.644;23.336;2022-08-16T12:15:12;7.53;;;4.00;;
1471;SDS011;963;42.644;23.336;2022-08-16T12:17:39;6.10;;;4.77;;
1471;SDS011;963;42.644;23.336;2022-08-16T12:20:07;7.90;;;3.80;;
1471;SDS011;963;42.644;23.336;2022-08-16T12:22:36;5.83;;;4.00;;
1471;SDS011;963;42.644;23.336;2022-08-16T12:25:05;4.33;;;3.93;;
1471;SDS011;963;42.644;23.336;2022-08-16T12:27:33;6.70;;;4.30;;
1471;SDS011;963;42.644;23.336;2022-08-16T12:30:00;4.70;;;4.30;;
1471;SDS011;963;42.644;23.336;2022-08-16T12:32:28;6.97;;;4.47;;
1471;SDS011;963;42.644;23.336;2022-08-16T12:34:53;5.77;;;5.17;;
1471;SDS011;963;42.644;23.336;2022-08-16T12:37:19;7.90;;;4.70;;
1471;SDS011;963;42.644;23.336;2022-08-16T12:39:45;4.93;;;4.43;;
1471;SDS011;963;42.644;23.336;2022-08-16T12:42:11;8.60;;;5.27;;
1471;SDS011;963;42.644;23.336;2022-08-16T12:44:36;6.23;;;4.30;;
1471;SDS011;963;42.644;23.336;2022-08-16T12:47:03;6.83;;;5.10;;
1471;SDS011;963;42.644;23.336;2022-08-16T12:49:47;7.00;;;4.63;;
1471;SDS011;963;42.644;23.336;2022-08-16T12:52:13;5.23;;;4.73;;
1471;SDS011;963;42.644;23.336;2022-08-16T12:54:39;6.20;;;4.43;;
1471;SDS011;963;42.644;23.336;2022-08-16T12:57:05;5.43;;;4.23;;
1471;SDS011;963;42.644;23.336;2022-08-16T12:59:32;6.27;;;4.20;;
1471;SDS011;963;42.644;23.336;2022-08-16T13:01:59;6.33;;;4.67;;
1471;SDS011;963;42.644;23.336;2022-08-16T13:04:26;5.63;;;4.90;;
1471;SDS011;963;42.644;23.336;2022-08-16T13:06:53;6.27;;;4.67;;
1471;SDS011;963;42.644;23.336;2022-08-16T13:09:22;9.73;;;4.90;;
1471;SDS011;963;42.644;23.336;2022-08-16T13:11:52;9.30;;;5.30;;
1471;SDS011;963;42.644;23.336;2022-08-16T13:14:35;10.13;;;4.60;;
1471;SDS011;963;42.644;23.336;2022-08-16T13:17:05;6.90;;;4.23;;
1471;SDS011;963;42.644;23.336;2022-08-16T13:19:33;6.73;;;4.43;;
1471;SDS011;963;42.644;23.336;2022-08-16T13:21:59;7.93;;;3.97;;
1471;SDS011;963;42.644;23.336;2022-08-16T13:24:25;5.43;;;3.73;;
1471;SDS011;963;42.644;23.336;2022-08-16T13:26:50;5.10;;;4.03;;
1471;SDS011;963;42.644;23.336;2022-08-16T13:29:15;9.03;;;4.07;;
1471;SDS011;963;42.644;23.336;2022-08-16T13:31:41;7.83;;;4.13;;
1471;SDS011;963;42.644;23.336;2022-08-16T13:34:06;6.90;;;4.10;;
1471;SDS011;963;42.644;23.336;2022-08-16T13:36:32;5.00;;;3.50;;
1471;SDS011;963;42.644;23.336;2022-08-16T13:38:57;8.67;;;4.23;;
1471;SDS011;963;42.644;23.336;2022-08-16T13:41:24;5.27;;;4.03;;
1471;SDS011;963;42.644;23.336;2022-08-16T13:43:51;5.43;;;3.23;;
1471;SDS011;963;42.644;23.336;2022-08-16T13:46:20;5.33;;;3.57;;
1471;SDS011;963;42.644;23.336;2022-08-16T13:48:52;4.77;;;3.40;;
1471;SDS011;963;42.644;23.336;2022-08-16T13:51:19;4.70;;;2.97;;
1471;SDS011;963;42.644;23.336;2022-08-16T13:53:48;5.97;;;3.30;;
1471;SDS011;963;42.644;23.336;2022-08-16T13:56:16;3.97;;;2.63;;
1471;SDS011;963;42.644;23.336;2022-08-16T13:58:42;4.70;;;3.17;;
1471;SDS011;963;42.644;23.336;2022-08-16T14:01:08;3.70;;;3.00;;
1471;SDS011;963;42.644;23.336;2022-08-16T14:03:33;5.23;;;2.70;;
1471;SDS011;963;42.644;23.336;2022-08-16T14:05:59;3.53;;;3.00;;
1471;SDS011;963;42.644;23.336;2022-08-16T14:08:24;4.00;;;3.30;;
1471;SDS011;963;42.644;23.336;2022-08-16T14:10:50;6.80;;;3.23;;
1471;SDS011;963;42.644;23.336;2022-08-16T14:13:16;5.70;;;3.43;;
1471;SDS011;963;42.644;23.336;2022-08-16T14:15:41;5.50;;;4.30;;
1471;SDS011;963;42.644;23.336;2022-08-16T14:18:06;7.37;;;3.70;;
1471;SDS011;963;42.644;23.336;2022-08-16T14:20:32;6.43;;;3.70;;
1471;SDS011;963;42.644;23.336;2022-08-16T14:22:57;6.43;;;3.53;;
1471;SDS011;963;42.644;23.336;2022-08-16T14:25:23;5.83;;;3.13;;
1471;SDS011;963;42.644;23.336;2022-08-16T14:27:49;4.20;;;3.80;;
1471;SDS011;963;42.644;23.336;2022-08-16T14:30:17;6.30;;;3.30;;
1471;SDS011;963;42.644;23.336;2022-08-16T14:32:43;5.27;;;3.30;;
1471;SDS011;963;42.644;23.336;2022-08-16T14:35:11;4.70;;;4.07;;
1471;SDS011;963;42.644;23.336;2022-08-16T14:37:39;4.77;;;3.60;;
1471;SDS011;963;42.644;23.336;2022-08-16T14:40:06;4.77;;;3.23;;
1471;SDS011;963;42.644;23.336;2022-08-16T14:42:34;8.70;;;4.00;;
1471;SDS011;963;42.644;23.336;2022-08-16T14:45:00;3.70;;;3.20;;
1471;SDS011;963;42.644;23.336;2022-08-16T14:47:25;6.63;;;3.97;;
1471;SDS011;963;42.644;23.336;2022-08-16T14:49:52;4.03;;;3.40;;
1471;SDS011;963;42.644;23.336;2022-08-16T14:52:18;7.00;;;3.30;;
1471;SDS011;963;42.644;23.336;2022-08-16T14:54:46;5.90;;;4.40;;
1471;SDS011;963;42.644;23.336;2022-08-16T14:57:13;9.50;;;4.00;;
1471;SDS011;963;42.644;23.336;2022-08-16T14:59:39;7.43;;;3.80;;